To NAV CANADA Home Page Login to a new session Search on AWWS site Feedback and Comments Disclaimer Vers la page française équivalente Tips FAQ What's new on the site To the Forecasts and Observations / NOTAM section To "File a Flight Plan" website Publications and other links Update of the User's profile FIC Telephone Numbers My Weather Data Folder Route Weather Data Regional Weather Data Local Weather Data To the Forecasts and Observations / NOTAM section
Request Generated 01/21/2017 at 02:04:12 UTC . Weather information available at that time is displayed.

METAR/TAF

RANKIN INLET/NU    

METAR CYRT 210200Z 10013G18KT 15SM -SN DRSN FEW010 BKN095 M17/M20
A3007 RMK ST1AC4 SLP190=
METAR CYRT 210100Z 09016G22KT 10SM -SN DRSN SCT010 BKN095 M17/M20
A3008 RMK SC3AC3 SLP193=
METAR CYRT 210000Z 09017G22KT 10SM -SN DRSN SCT010 BKN097 M16/M19
A3008 RMK SC4AC2 SLP191=

TAF CYRT 202338Z 2100/2112 10015G25KT P6SM -SN SCT010 OVC080 TEMPO
2100/2104 3SM -SN BLSN BKN010 OVC080
FM210400 11020G30KT P6SM -SN SCT008 OVC025 TEMPO 2104/2112 2SM
-SN BLSN OVC008
RMK NXT FCST BY 210600Z=
Your time UTC time
Weather data provided by Environment Canada and NAV CANADA